To NAV CANADA Home Page Login to a new session Search on AWWS site Feedback and Comments Disclaimer Vers la page française équivalente Tips FAQ What's new on the site To the Forecasts and Observations / NOTAM section To "File a Flight Plan" website Publications and other links Update of the User's profile FIC Telephone Numbers My Weather Data Folder Route Weather Data Regional Weather Data Local Weather Data To the Forecasts and Observations / NOTAM section
Request Generated 09/02/2015 at 06:23:18 UTC . Weather information available at that time is displayed.

METAR/TAF

NATASHQUAN/QC    (show WxCam)

METAR CYNA 020600Z AUTO 09005KT 9SM OVC110 11/08 A2991 RMK SLP128=
METAR CYNA 020500Z AUTO 09004KT 9SM BKN100 OVC140 11/08 A2992 RMK
SLP133=
METAR CYNA 020400Z AUTO 04004KT 9SM BKN110 OVC130 09/08 A2995 RMK
SLP141=

TAF CYNA 020138Z 0202/0214 VRB03KT P6SM SCT100
FM021000 09006KT P6SM BKN040
RMK FCST BASED ON AUTO OBS. NXT FCST BY 020800Z=
Your time UTC time
Weather data provided by Environment Canada and NAV CANADA